createdAt,value
2023-01-17T00:00:49.430Z,94198.97
2023-01-17T00:10:58.956Z,94190.28
2023-01-17T00:21:19.758Z,94182.06
2023-01-17T00:31:22.138Z,94197.75
2023-01-17T00:41:24.458Z,94170.25
2023-01-17T00:51:47.145Z,94189.41
2023-01-17T01:02:08.007Z,94197.31
2023-01-17T01:12:28.966Z,94210.94
2023-01-17T01:22:49.589Z,94208.94
2023-01-17T01:33:10.739Z,94203.06
2023-01-17T01:43:14.993Z,94190.53
2023-01-17T01:53:20.423Z,94194.03
2023-01-17T02:03:29.594Z,94181.78
2023-01-17T02:13:31.997Z,94186.91
2023-01-17T02:23:53.209Z,94184.81
2023-01-17T02:34:20.724Z,94168.03
2023-01-17T02:44:24.197Z,94162.06
2023-01-17T02:54:56.032Z,94169.19
2023-01-17T03:05:09.216Z,94177.97
2023-01-17T03:15:13.118Z,94157.34
2023-01-17T03:25:16.851Z,94177.75
2023-01-17T03:35:19.289Z,94147.72
2023-01-17T03:45:21.679Z,94168.47
2023-01-17T03:55:24.036Z,94180.41
2023-01-17T04:05:26.423Z,94157.69
2023-01-17T04:15:28.880Z,94185.44
2023-01-17T04:25:31.457Z,94186.22
2023-01-17T04:35:33.837Z,94189.31
2023-01-17T06:05:11.467Z,94296.94
2023-01-17T06:15:15.393Z,94308.44
2023-01-17T06:25:17.762Z,94329.75
2023-01-17T06:35:20.113Z,94347.75
2023-01-17T06:45:22.592Z,94338.41
2023-01-17T06:55:25.152Z,94349.63
2023-01-17T07:05:28.707Z,94358.97
2023-01-17T07:15:31.138Z,94360.38
2023-01-17T07:25:33.684Z,94356.28
2023-01-17T07:35:37.429Z,94369.00
2023-01-17T07:45:49.730Z,94375.47
2023-01-17T07:55:52.455Z,94369.78
2023-01-17T08:05:57.745Z,94402.38
2023-01-17T08:16:02.603Z,94430.72
2023-01-17T08:26:05.197Z,94453.38
2023-01-17T08:36:07.620Z,94437.38
2023-01-17T08:46:10.128Z,94463.09
2023-01-17T08:56:12.555Z,94471.66
2023-01-17T09:06:16.300Z,94475.75
2023-01-17T09:16:18.826Z,94486.50
2023-01-17T09:26:22.476Z,94489.41
2023-01-17T09:36:34.036Z,94474.53
2023-01-17T09:46:46.053Z,94477.84
2023-01-17T09:56:58.688Z,94489.34
2023-01-17T10:07:40.904Z,94480.84
2023-01-17T10:18:29.856Z,94495.72
2023-01-17T10:28:40.788Z,94506.19
2023-01-17T10:38:48.279Z,94512.72
2023-01-17T10:48:52.982Z,94514.25
2023-01-17T10:59:31.364Z,94524.53
2023-01-17T11:09:42.958Z,94555.53
2023-01-17T11:19:49.173Z,94556.63
2023-01-17T11:30:03.060Z,94546.81
2023-01-17T11:40:18.452Z,94527.94
2023-01-17T11:50:25.249Z,94530.00
2023-01-17T12:00:47.374Z,94527.44
2023-01-17T12:11:17.290Z,94512.84
2023-01-17T12:21:36.087Z,94512.63
2023-01-17T12:31:59.729Z,94512.28
2023-01-17T12:42:24.368Z,94521.25
2023-01-17T12:52:38.815Z,94531.16
2023-01-17T13:02:54.292Z,94549.03
2023-01-17T13:13:00.046Z,94573.97
2023-01-17T13:23:16.971Z,94571.53
2023-01-17T13:33:36.479Z,94566.00
2023-01-17T13:43:42.466Z,94588.88
2023-01-17T13:53:44.785Z,94608.03
2023-01-17T14:03:50.215Z,94629.84
2023-01-17T14:13:52.854Z,94637.06
2023-01-17T14:24:15.438Z,94660.81
2023-01-17T14:34:22.515Z,94662.25
2023-01-17T14:44:25.007Z,94673.47
2023-01-17T14:54:27.547Z,94678.13
2023-01-17T15:04:32.132Z,94658.59
2023-01-17T15:14:39.310Z,94644.13
2023-01-17T15:24:44.869Z,94658.22
2023-01-17T15:34:50.213Z,94652.03
2023-01-17T15:44:56.766Z,94637.09
2023-01-17T15:55:12.581Z,94651.69
2023-01-17T16:05:31.237Z,94640.88
2023-01-17T16:15:35.437Z,94630.31
2023-01-17T16:25:38.552Z,94642.91
2023-01-17T16:35:43.185Z,94636.16
2023-01-17T16:45:47.814Z,94628.59
2023-01-17T16:55:52.837Z,94643.81
2023-01-17T17:06:00.470Z,94630.75
2023-01-17T17:16:03.414Z,94650.16
2023-01-17T17:26:06.211Z,94670.06
2023-01-17T17:36:10.423Z,94683.56
2023-01-17T17:46:13.305Z,94693.09
2023-01-17T17:56:15.744Z,94699.56
2023-01-17T18:06:18.895Z,94702.59
2023-01-17T18:16:42.818Z,94714.50
2023-01-17T18:26:48.177Z,94711.19
2023-01-17T18:36:51.869Z,94715.06
2023-01-17T18:46:55.064Z,94723.28
2023-01-17T18:56:57.586Z,94732.75
2023-01-17T19:06:59.977Z,94729.25
2023-01-17T19:17:02.431Z,94720.47
2023-01-17T19:27:07.339Z,94722.13
2023-01-17T19:37:09.704Z,94723.09
2023-01-17T19:47:12.341Z,94729.09
2023-01-17T19:57:15.086Z,94741.06
2023-01-17T20:07:17.551Z,94740.31
2023-01-17T20:17:20.432Z,94732.69
2023-01-17T20:27:26.709Z,94734.34
2023-01-17T20:37:29.207Z,94741.44
2023-01-17T20:47:31.605Z,94753.91
2023-01-17T20:57:34.584Z,94731.31
2023-01-17T21:07:37.598Z,94718.88
2023-01-17T21:17:43.180Z,94716.81
2023-01-17T21:27:45.859Z,94718.28
2023-01-17T21:40:11.214Z,94716.59
2023-01-17T21:50:25.009Z,94701.81
2023-01-17T22:00:34.737Z,94709.38
2023-01-17T22:10:44.766Z,94703.66
2023-01-17T22:20:47.301Z,94712.97
2023-01-17T22:30:49.756Z,94705.66
2023-01-17T22:40:52.291Z,94693.00
2023-01-17T22:50:59.955Z,94675.16
2023-01-17T23:01:05.796Z,94679.31
2023-01-17T23:11:41.107Z,94678.41
2023-01-17T23:22:01.976Z,94673.34
2023-01-17T23:32:04.672Z,94678.13
2023-01-17T23:42:25.874Z,94671.75
2023-01-17T23:52:28.235Z,94663.50
